sensor_id;sensor_type;location;lat;lon;timestamp;pressure;altitude;pressure_sealevel;temperature;humidity
48027;BME280;50714;49.208;5.364;2024-01-07T00:05:16;99175.06;;;4.69;100.00
48027;BME280;50714;49.208;5.364;2024-01-07T00:15:16;99180.75;;;4.66;100.00
48027;BME280;50714;49.208;5.364;2024-01-07T00:25:16;99190.44;;;4.67;100.00
48027;BME280;50714;49.208;5.364;2024-01-07T00:35:18;99195.63;;;4.69;100.00
48027;BME280;50714;49.208;5.364;2024-01-07T00:45:18;99197.63;;;4.67;100.00
48027;BME280;50714;49.208;5.364;2024-01-07T00:55:19;99196.13;;;4.64;100.00
48027;BME280;50714;49.208;5.364;2024-01-07T01:05:19;99206.81;;;4.64;100.00
48027;BME280;50714;49.208;5.364;2024-01-07T01:15:20;99209.50;;;4.64;100.00
48027;BME280;50714;49.208;5.364;2024-01-07T01:25:21;99224.69;;;4.64;100.00
48027;BME280;50714;49.208;5.364;2024-01-07T01:35:22;99226.19;;;4.58;100.00
48027;BME280;50714;49.208;5.364;2024-01-07T01:45:22;99227.69;;;4.61;100.00
48027;BME280;50714;49.208;5.364;2024-01-07T01:55:22;99231.88;;;4.63;100.00
48027;BME280;50714;49.208;5.364;2024-01-07T02:05:23;99241.56;;;4.56;100.00
48027;BME280;50714;49.208;5.364;2024-01-07T02:15:23;99248.25;;;4.60;100.00
48027;BME280;50714;49.208;5.364;2024-01-07T02:25:24;99257.59;;;4.64;100.00
48027;BME280;50714;49.208;5.364;2024-01-07T02:35:24;99254.44;;;4.61;100.00
48027;BME280;50714;49.208;5.364;2024-01-07T02:45:24;99244.25;;;4.56;100.00
48027;BME280;50714;49.208;5.364;2024-01-07T02:55:25;99239.72;;;4.57;100.00
48027;BME280;50714;49.208;5.364;2024-01-07T03:05:25;99243.06;;;4.59;100.00
48027;BME280;50714;49.208;5.364;2024-01-07T03:15:25;99245.41;;;4.54;100.00
48027;BME280;50714;49.208;5.364;2024-01-07T03:25:26;99240.75;;;4.56;100.00
48027;BME280;50714;49.208;5.364;2024-01-07T03:35:27;99247.75;;;4.57;100.00
48027;BME280;50714;49.208;5.364;2024-01-07T03:45:27;99248.91;;;4.54;100.00
48027;BME280;50714;49.208;5.364;2024-01-07T03:55:27;99256.78;;;4.56;100.00
48027;BME280;50714;49.208;5.364;2024-01-07T04:05:28;99251.59;;;4.54;100.00
48027;BME280;50714;49.208;5.364;2024-01-07T04:15:29;99255.44;;;4.52;100.00
48027;BME280;50714;49.208;5.364;2024-01-07T04:25:29;99263.47;;;4.52;100.00
48027;BME280;50714;49.208;5.364;2024-01-07T04:35:30;99269.34;;;4.47;100.00
48027;BME280;50714;49.208;5.364;2024-01-07T04:45:30;99278.81;;;4.50;100.00
48027;BME280;50714;49.208;5.364;2024-01-07T04:55:30;99288.88;;;4.48;100.00
48027;BME280;50714;49.208;5.364;2024-01-07T05:05:31;99292.88;;;4.43;100.00
48027;BME280;50714;49.208;5.364;2024-01-07T05:15:31;99301.56;;;4.45;100.00
48027;BME280;50714;49.208;5.364;2024-01-07T05:25:32;99302.91;;;4.41;100.00
48027;BME280;50714;49.208;5.364;2024-01-07T05:35:32;99330.47;;;4.42;100.00
48027;BME280;50714;49.208;5.364;2024-01-07T05:45:32;99336.47;;;4.44;100.00
48027;BME280;50714;49.208;5.364;2024-01-07T05:55:33;99346.50;;;4.42;100.00
48027;BME280;50714;49.208;5.364;2024-01-07T06:05:33;99344.16;;;4.39;100.00
48027;BME280;50714;49.208;5.364;2024-01-07T06:15:33;99344.97;;;4.39;99.88
48027;BME280;50714;49.208;5.364;2024-01-07T06:25:34;99353.00;;;4.39;99.81
48027;BME280;50714;49.208;5.364;2024-01-07T06:35:34;99373.19;;;4.34;100.00
48027;BME280;50714;49.208;5.364;2024-01-07T06:45:34;99370.34;;;4.35;100.00
48027;BME280;50714;49.208;5.364;2024-01-07T06:55:34;99385.03;;;4.31;100.00
48027;BME280;50714;49.208;5.364;2024-01-07T07:05:35;99392.72;;;4.26;99.28
48027;BME280;50714;49.208;5.364;2024-01-07T07:15:35;99399.41;;;4.14;100.00
48027;BME280;50714;49.208;5.364;2024-01-07T07:25:36;99406.06;;;4.10;100.00
48027;BME280;50714;49.208;5.364;2024-01-07T07:35:36;99422.88;;;4.02;99.77
48027;BME280;50714;49.208;5.364;2024-01-07T07:45:38;99430.41;;;4.07;98.89
48027;BME280;50714;49.208;5.364;2024-01-07T07:55:39;99444.44;;;4.09;99.25
48027;BME280;50714;49.208;5.364;2024-01-07T08:05:40;99456.00;;;4.18;99.87
48027;BME280;50714;49.208;5.364;2024-01-07T08:15:41;99469.69;;;4.23;98.48
48027;BME280;50714;49.208;5.364;2024-01-07T08:25:42;99468.69;;;4.32;97.77
48027;BME280;50714;49.208;5.364;2024-01-07T08:35:42;99469.72;;;4.39;98.04
48027;BME280;50714;49.208;5.364;2024-01-07T08:45:43;99482.91;;;4.40;98.41
48027;BME280;50714;49.208;5.364;2024-01-07T08:55:43;99497.47;;;4.46;98.75
48027;BME280;50714;49.208;5.364;2024-01-07T09:05:43;99498.63;;;4.52;97.81
48027;BME280;50714;49.208;5.364;2024-01-07T09:15:44;99499.47;;;4.60;97.52
48027;BME280;50714;49.208;5.364;2024-01-07T09:25:44;99523.34;;;4.54;97.39
48027;BME280;50714;49.208;5.364;2024-01-07T09:35:46;99527.19;;;4.51;96.99
48027;BME280;50714;49.208;5.364;2024-01-07T09:45:47;99522.84;;;4.58;96.81
48027;BME280;50714;49.208;5.364;2024-01-07T09:56:07;99540.91;;;4.64;97.12
48027;BME280;50714;49.208;5.364;2024-01-07T10:06:12;99546.59;;;4.61;97.15
48027;BME280;50714;49.208;5.364;2024-01-07T10:16:13;99557.28;;;4.61;97.24
48027;BME280;50714;49.208;5.364;2024-01-07T10:26:14;99558.97;;;4.62;97.90
48027;BME280;50714;49.208;5.364;2024-01-07T10:36:15;99553.63;;;4.70;98.71
48027;BME280;50714;49.208;5.364;2024-01-07T10:46:16;99560.47;;;4.73;96.79
48027;BME280;50714;49.208;5.364;2024-01-07T10:56:23;99551.63;;;4.80;97.13
48027;BME280;50714;49.208;5.364;2024-01-07T11:06:38;99554.66;;;4.86;97.99
48027;BME280;50714;49.208;5.364;2024-01-07T11:16:42;99554.97;;;4.83;97.92
48027;BME280;50714;49.208;5.364;2024-01-07T11:26:42;99559.84;;;4.87;97.17
48027;BME280;50714;49.208;5.364;2024-01-07T11:36:43;99557.19;;;4.95;97.32
48027;BME280;50714;49.208;5.364;2024-01-07T11:46:43;99564.00;;;4.98;97.44
48027;BME280;50714;49.208;5.364;2024-01-07T11:56:44;99572.03;;;4.98;96.46
48027;BME280;50714;49.208;5.364;2024-01-07T12:06:44;99563.69;;;4.93;95.58
48027;BME280;50714;49.208;5.364;2024-01-07T12:16:45;99557.19;;;4.95;96.18
48027;BME280;50714;49.208;5.364;2024-01-07T12:26:46;99560.50;;;4.97;95.52
48027;BME280;50714;49.208;5.364;2024-01-07T12:36:48;99547.47;;;5.10;95.71
48027;BME280;50714;49.208;5.364;2024-01-07T12:46:48;99554.84;;;5.17;95.05
48027;BME280;50714;49.208;5.364;2024-01-07T12:56:51;99554.84;;;5.17;95.29
48027;BME280;50714;49.208;5.364;2024-01-07T13:06:52;99549.81;;;5.30;95.42
48027;BME280;50714;49.208;5.364;2024-01-07T13:16:52;99570.53;;;5.28;94.50
48027;BME280;50714;49.208;5.364;2024-01-07T13:26:52;99576.56;;;5.22;93.57
48027;BME280;50714;49.208;5.364;2024-01-07T13:36:53;99572.75;;;5.16;94.35
48027;BME280;50714;49.208;5.364;2024-01-07T13:46:53;99578.91;;;5.17;93.93
48027;BME280;50714;49.208;5.364;2024-01-07T13:56:53;99587.94;;;5.07;93.99
48027;BME280;50714;49.208;5.364;2024-01-07T14:06:55;99593.13;;;5.17;94.50
48027;BME280;50714;49.208;5.364;2024-01-07T14:16:56;99601.16;;;5.17;93.73
48027;BME280;50714;49.208;5.364;2024-01-07T14:26:56;99621.03;;;5.06;91.34
48027;BME280;50714;49.208;5.364;2024-01-07T14:36:56;99622.84;;;4.98;91.65
48027;BME280;50714;49.208;5.364;2024-01-07T14:46:57;99644.25;;;4.98;91.85
48027;BME280;50714;49.208;5.364;2024-01-07T14:56:57;99645.25;;;4.97;92.32
48027;BME280;50714;49.208;5.364;2024-01-07T15:06:57;99657.63;;;4.90;91.54
48027;BME280;50714;49.208;5.364;2024-01-07T15:16:59;99678.81;;;4.83;91.84
48027;BME280;50714;49.208;5.364;2024-01-07T15:26:59;99690.81;;;4.79;92.09
48027;BME280;50714;49.208;5.364;2024-01-07T15:36:59;99699.47;;;4.73;92.50
48027;BME280;50714;49.208;5.364;2024-01-07T15:47:00;99709.34;;;4.72;91.53
48027;BME280;50714;49.208;5.364;2024-01-07T15:57:00;99714.97;;;4.61;89.33
48027;BME280;50714;49.208;5.364;2024-01-07T16:07:02;99728.59;;;4.50;88.22
48027;BME280;50714;49.208;5.364;2024-01-07T16:17:03;99734.63;;;4.52;89.15
48027;BME280;50714;49.208;5.364;2024-01-07T16:27:05;99757.00;;;4.51;88.89
48027;BME280;50714;49.208;5.364;2024-01-07T16:37:07;99756.66;;;4.46;88.09
48027;BME280;50714;49.208;5.364;2024-01-07T16:47:07;99769.19;;;4.45;87.78
48027;BME280;50714;49.208;5.364;2024-01-07T16:57:10;99777.00;;;4.39;87.97
48027;BME280;50714;49.208;5.364;2024-01-07T17:07:10;99777.97;;;4.38;89.15
48027;BME280;50714;49.208;5.364;2024-01-07T17:17:11;99789.66;;;4.37;88.42
48027;BME280;50714;49.208;5.364;2024-01-07T17:27:12;99797.41;;;4.22;87.21
48027;BME280;50714;49.208;5.364;2024-01-07T17:37:12;99799.72;;;4.17;87.38
48027;BME280;50714;49.208;5.364;2024-01-07T17:47:13;99810.84;;;4.13;88.25
48027;BME280;50714;49.208;5.364;2024-01-07T17:57:15;99801.84;;;4.14;86.36
48027;BME280;50714;49.208;5.364;2024-01-07T18:07:16;99824.81;;;4.06;85.74
48027;BME280;50714;49.208;5.364;2024-01-07T18:17:16;99819.13;;;4.01;85.49
48027;BME280;50714;49.208;5.364;2024-01-07T18:27:16;99825.28;;;4.02;82.78
48027;BME280;50714;49.208;5.364;2024-01-07T18:37:17;99846.44;;;3.95;81.02
48027;BME280;50714;49.208;5.364;2024-01-07T18:47:20;99841.28;;;3.84;80.27
48027;BME280;50714;49.208;5.364;2024-01-07T18:57:21;99866.41;;;3.73;78.19
48027;BME280;50714;49.208;5.364;2024-01-07T19:07:21;99877.97;;;3.64;78.30
48027;BME280;50714;49.208;5.364;2024-01-07T19:17:21;99879.78;;;3.64;77.72
48027;BME280;50714;49.208;5.364;2024-01-07T19:27:22;99886.84;;;3.55;78.10
48027;BME280;50714;49.208;5.364;2024-01-07T19:37:22;99901.00;;;3.38;76.38
48027;BME280;50714;49.208;5.364;2024-01-07T19:47:23;99909.91;;;3.29;76.98
48027;BME280;50714;49.208;5.364;2024-01-07T19:57:23;99914.00;;;3.14;76.76
48027;BME280;50714;49.208;5.364;2024-01-07T20:07:24;99925.09;;;3.09;76.44
48027;BME280;50714;49.208;5.364;2024-01-07T20:17:25;99928.59;;;3.09;76.56
48027;BME280;50714;49.208;5.364;2024-01-07T20:27:25;99932.56;;;3.05;76.43
48027;BME280;50714;49.208;5.364;2024-01-07T20:37:25;99956.44;;;2.97;75.91
48027;BME280;50714;49.208;5.364;2024-01-07T20:47:26;99956.03;;;2.92;76.43
48027;BME280;50714;49.208;5.364;2024-01-07T20:57:26;99969.25;;;2.74;73.64
48027;BME280;50714;49.208;5.364;2024-01-07T21:07:26;99965.16;;;2.61;74.42
48027;BME280;50714;49.208;5.364;2024-01-07T21:17:27;99980.06;;;2.54;75.40
48027;BME280;50714;49.208;5.364;2024-01-07T21:27:31;99993.66;;;2.51;76.14
48027;BME280;50714;49.208;5.364;2024-01-07T21:37:31;99993.50;;;2.43;75.59
48027;BME280;50714;49.208;5.364;2024-01-07T21:47:31;99998.25;;;2.39;74.77
48027;BME280;50714;49.208;5.364;2024-01-07T21:57:31;99996.72;;;2.27;75.82
48027;BME280;50714;49.208;5.364;2024-01-07T22:07:32;100014.34;;;2.18;75.52
48027;BME280;50714;49.208;5.364;2024-01-07T22:17:32;100025.69;;;2.11;74.91
48027;BME280;50714;49.208;5.364;2024-01-07T22:27:34;100012.78;;;2.06;75.25
48027;BME280;50714;49.208;5.364;2024-01-07T22:37:35;100038.91;;;1.82;72.40
48027;BME280;50714;49.208;5.364;2024-01-07T22:47:35;100058.25;;;1.84;72.25
48027;BME280;50714;49.208;5.364;2024-01-07T22:57:36;100051.44;;;1.60;68.65
48027;BME280;50714;49.208;5.364;2024-01-07T23:07:36;100049.19;;;1.35;69.39
48027;BME280;50714;49.208;5.364;2024-01-07T23:17:36;100070.78;;;1.21;69.33
48027;BME280;50714;49.208;5.364;2024-01-07T23:27:40;100061.41;;;1.17;70.21
48027;BME280;50714;49.208;5.364;2024-01-07T23:37:40;100063.84;;;1.09;69.95
48027;BME280;50714;49.208;5.364;2024-01-07T23:47:41;100059.88;;;1.03;69.85
48027;BME280;50714;49.208;5.364;2024-01-07T23:57:41;100064.72;;;0.98;69.04
